createdAt,value
2018-11-21T00:00:12.171Z,17.13
2018-11-21T00:02:39.582Z,19.23
2018-11-21T00:05:06.909Z,18.73
2018-11-21T00:07:35.304Z,19.43
2018-11-21T00:10:02.952Z,17.20
2018-11-21T00:12:30.840Z,16.20
2018-11-21T00:14:58.271Z,16.87
2018-11-21T00:17:25.717Z,17.37
2018-11-21T00:19:53.112Z,17.13
2018-11-21T00:27:50.205Z,18.10
2018-11-21T00:30:17.528Z,16.67
2018-11-21T00:32:44.855Z,16.83
2018-11-21T00:35:13.637Z,18.97
2018-11-21T00:37:41.678Z,16.43
2018-11-21T00:40:41.626Z,15.10
2018-11-21T00:43:09.010Z,15.20
2018-11-21T00:45:36.298Z,17.00
2018-11-21T00:48:03.619Z,17.23
2018-11-21T00:50:31.303Z,17.10
2018-11-21T00:52:58.588Z,17.37
2018-11-21T00:55:26.284Z,17.83
2018-11-21T00:57:53.721Z,16.80
2018-11-21T01:00:21.045Z,16.20
2018-11-21T01:02:51.361Z,15.73
2018-11-21T01:05:19.685Z,17.30
2018-11-21T01:07:46.976Z,15.90
2018-11-21T01:10:14.367Z,17.23
2018-11-21T01:12:41.800Z,18.10
2018-11-21T01:15:09.105Z,17.10
2018-11-21T01:17:36.404Z,15.73
2018-11-21T01:20:04.109Z,17.43
2018-11-21T01:22:31.597Z,18.50
2018-11-21T01:24:59.227Z,18.50
2018-11-21T01:27:27.311Z,18.57
2018-11-21T01:29:53.918Z,17.60
2018-11-21T01:32:21.314Z,16.97
2018-11-21T01:34:49.764Z,18.07
2018-11-21T01:37:17.095Z,18.23
2018-11-21T01:39:44.323Z,16.70
2018-11-21T01:42:12.775Z,18.40
2018-11-21T01:44:40.022Z,17.33
2018-11-21T01:47:07.375Z,17.03
2018-11-21T01:49:34.641Z,16.67
2018-11-21T01:52:02.296Z,18.57
2018-11-21T01:54:29.682Z,18.00
2018-11-21T01:56:57.291Z,19.00
2018-11-21T01:59:24.584Z,18.10
2018-11-21T02:01:51.927Z,20.07
2018-11-21T02:04:19.332Z,19.00
2018-11-21T02:06:46.610Z,19.37
2018-11-21T02:09:14.220Z,19.70
2018-11-21T02:11:42.223Z,18.87
2018-11-21T02:14:09.567Z,19.47
2018-11-21T02:16:36.817Z,19.53
2018-11-21T02:19:04.628Z,18.57
2018-11-21T02:21:31.950Z,19.13
2018-11-21T02:23:59.278Z,17.03
2018-11-21T02:26:27.815Z,16.53
2018-11-21T02:28:55.229Z,18.63
2018-11-21T02:31:22.557Z,20.27
2018-11-21T02:33:49.833Z,20.43
2018-11-21T02:36:17.247Z,22.23
2018-11-21T02:38:44.869Z,21.07
2018-11-21T02:41:13.266Z,24.00
2018-11-21T02:43:40.574Z,22.47
2018-11-21T02:46:07.893Z,22.73
2018-11-21T02:48:35.521Z,23.47
2018-11-21T02:51:02.934Z,24.30
2018-11-21T02:53:32.016Z,19.97
2018-11-21T02:55:59.423Z,21.63
2018-11-21T02:58:26.869Z,23.30
2018-11-21T03:00:54.267Z,24.73
2018-11-21T03:03:21.848Z,24.30
2018-11-21T03:05:49.866Z,26.07
2018-11-21T03:11:07.158Z,25.90
2018-11-21T03:13:34.899Z,28.07
2018-11-21T03:16:02.790Z,26.43
2018-11-21T03:18:30.517Z,24.00
2018-11-21T03:20:58.257Z,25.13
2018-11-21T03:23:25.929Z,24.70
2018-11-21T03:25:53.673Z,25.30
2018-11-21T03:28:21.519Z,25.03
2018-11-21T03:30:49.846Z,24.63
2018-11-21T03:33:18.104Z,25.37
2018-11-21T03:35:45.846Z,27.50
2018-11-21T03:38:13.691Z,27.53
2018-11-21T03:40:41.459Z,24.57
2018-11-21T03:43:09.220Z,25.63
2018-11-21T03:45:39.287Z,27.43
2018-11-21T03:48:07.017Z,25.27
2018-11-21T03:50:35.081Z,21.90
2018-11-21T03:53:02.761Z,23.60
2018-11-21T03:55:30.504Z,21.50
2018-11-21T03:57:58.248Z,22.90
2018-11-21T04:00:25.977Z,22.67
2018-11-21T04:02:53.781Z,22.40
2018-11-21T04:05:21.459Z,23.93
2018-11-21T04:07:49.164Z,20.93
2018-11-21T04:10:16.904Z,23.23
2018-11-21T04:12:45.150Z,21.10
2018-11-21T04:15:13.424Z,23.23
2018-11-21T04:17:41.111Z,24.90
2018-11-21T04:20:09.120Z,25.90
2018-11-21T04:22:38.415Z,28.03
2018-11-21T04:25:06.259Z,29.27
2018-11-21T04:27:34.033Z,31.20
2018-11-21T04:30:01.771Z,30.80
2018-11-21T04:32:29.535Z,30.70
2018-11-21T04:34:57.302Z,28.20
2018-11-21T04:37:25.058Z,29.37
2018-11-21T04:39:53.212Z,32.00
2018-11-21T04:42:20.912Z,28.47
2018-11-21T04:44:49.144Z,29.20
2018-11-21T04:47:16.935Z,27.93
2018-11-21T04:49:45.067Z,26.93
2018-11-21T04:52:12.780Z,26.90
2018-11-21T04:54:40.531Z,28.97
2018-11-21T04:57:08.223Z,25.77
2018-11-21T04:59:37.037Z,29.60
2018-11-21T05:02:04.924Z,26.27
2018-11-21T05:04:33.194Z,28.53
2018-11-21T05:07:00.959Z,25.57
2018-11-21T05:09:28.666Z,26.87
2018-11-21T05:11:56.795Z,26.93
2018-11-21T05:14:24.500Z,27.57
2018-11-21T05:16:52.326Z,27.37
2018-11-21T05:19:20.107Z,27.77
2018-11-21T05:21:47.895Z,28.10
2018-11-21T05:24:16.175Z,31.53
2018-11-21T05:26:44.411Z,31.87
2018-11-21T05:29:12.682Z,32.07
2018-11-21T05:31:40.542Z,30.20
2018-11-21T05:34:08.207Z,29.77
2018-11-21T05:36:35.964Z,28.40
2018-11-21T05:39:06.457Z,30.63
2018-11-21T05:41:34.288Z,30.47
2018-11-21T05:44:02.070Z,31.57
2018-11-21T05:46:30.333Z,31.60
2018-11-21T05:48:58.175Z,32.87
2018-11-21T05:51:26.396Z,36.87
2018-11-21T05:53:54.295Z,37.00
2018-11-21T05:56:22.511Z,36.90
2018-11-21T05:58:50.246Z,36.20
2018-11-21T06:01:17.985Z,40.03
2018-11-21T06:03:45.694Z,39.93
2018-11-21T06:06:13.364Z,41.67
2018-11-21T06:08:41.065Z,41.10
2018-11-21T06:11:14.235Z,40.30
2018-11-21T06:13:46.167Z,41.50
2018-11-21T06:16:27.025Z,40.03
2018-11-21T06:18:56.351Z,40.00
2018-11-21T06:21:27.401Z,40.20
2018-11-21T06:24:04.454Z,46.93
2018-11-21T06:26:42.662Z,43.40
2018-11-21T06:29:15.326Z,44.17
2018-11-21T06:31:44.693Z,45.77
2018-11-21T06:34:14.761Z,45.67
2018-11-21T06:36:47.477Z,49.00
2018-11-21T06:39:19.870Z,84.70
2018-11-21T06:42:12.354Z,59.83
2018-11-21T06:44:41.803Z,63.87
2018-11-21T06:47:12.361Z,54.33
2018-11-21T06:49:43.236Z,52.30
2018-11-21T06:52:12.922Z,52.53
2018-11-21T06:54:43.729Z,54.07
2018-11-21T06:57:32.711Z,58.57
2018-11-21T07:00:03.095Z,56.70
2018-11-21T07:02:42.140Z,53.87
2018-11-21T07:05:29.230Z,55.43
2018-11-21T07:08:02.228Z,59.10
2018-11-21T07:10:32.177Z,63.50
2018-11-21T07:13:01.855Z,65.47
2018-11-21T07:15:58.653Z,57.40
2018-11-21T07:18:28.230Z,59.60
2018-11-21T07:21:05.100Z,57.63
2018-11-21T07:23:41.481Z,63.23
2018-11-21T07:26:11.861Z,59.67
2018-11-21T07:28:44.193Z,59.93
2018-11-21T07:31:16.295Z,62.07
2018-11-21T07:33:52.685Z,61.27
2018-11-21T07:36:26.602Z,59.00
2018-11-21T07:39:02.065Z,62.67
2018-11-21T07:41:34.286Z,63.07
2018-11-21T07:44:06.897Z,58.67
2018-11-21T07:46:40.538Z,63.47
2018-11-21T07:49:17.499Z,69.80
2018-11-21T07:51:58.670Z,60.93
2018-11-21T07:54:30.966Z,61.13
2018-11-21T07:57:24.496Z,71.70
2018-11-21T08:00:14.799Z,68.53
2018-11-21T08:02:56.460Z,67.00
2018-11-21T08:05:44.292Z,66.87
2018-11-21T08:08:46.218Z,66.43
2018-11-21T08:11:39.067Z,63.67
2018-11-21T08:14:33.694Z,64.60
2018-11-21T08:17:20.592Z,63.13
2018-11-21T08:20:10.776Z,68.70
2018-11-21T08:23:07.665Z,58.40
2018-11-21T08:25:58.409Z,64.13
2018-11-21T08:28:35.456Z,68.00
2018-11-21T08:31:07.599Z,62.47
2018-11-21T08:33:37.255Z,60.50
2018-11-21T08:36:08.151Z,62.27
2018-11-21T08:38:39.824Z,54.17
2018-11-21T08:41:09.956Z,60.80
2018-11-21T08:43:44.498Z,56.63
2018-11-21T08:46:15.223Z,74.67
2018-11-21T08:48:50.493Z,69.40
2018-11-21T08:51:29.056Z,69.87
2018-11-21T08:54:02.566Z,74.30
2018-11-21T08:56:34.098Z,74.63
2018-11-21T08:59:04.792Z,81.87
2018-11-21T09:01:47.213Z,87.60
2018-11-21T09:04:20.148Z,77.20
2018-11-21T09:07:05.285Z,71.83
2018-11-21T09:09:38.113Z,73.67
2018-11-21T09:12:27.368Z,63.87
2018-11-21T09:14:58.519Z,57.60
2018-11-21T09:17:27.794Z,47.30
2018-11-21T09:20:00.451Z,43.77
2018-11-21T09:22:34.413Z,40.03
2018-11-21T09:25:11.800Z,39.33
2018-11-21T09:27:48.347Z,35.37
2018-11-21T09:30:36.735Z,32.60
2018-11-21T09:33:11.508Z,29.90
2018-11-21T09:35:45.721Z,25.00
2018-11-21T09:38:23.197Z,26.47
2018-11-21T09:40:55.320Z,28.93
2018-11-21T09:43:33.880Z,28.23
2018-11-21T09:46:07.460Z,26.17
2018-11-21T09:48:39.617Z,26.07
2018-11-21T09:51:14.964Z,23.93
2018-11-21T09:53:47.768Z,22.77
2018-11-21T09:56:22.892Z,23.33
2018-11-21T09:58:57.015Z,23.10
2018-11-21T10:01:43.732Z,22.40
2018-11-21T10:04:17.760Z,21.83
2018-11-21T10:06:54.152Z,21.47
2018-11-21T10:09:39.896Z,20.30
2018-11-21T10:12:19.465Z,22.10
2018-11-21T10:14:54.294Z,22.07
2018-11-21T10:17:27.337Z,20.97
2018-11-21T10:19:59.067Z,22.50
2018-11-21T10:22:30.377Z,22.70
2018-11-21T10:25:01.542Z,21.97
2018-11-21T10:27:34.978Z,22.97
2018-11-21T10:30:06.937Z,24.30
2018-11-21T10:32:37.497Z,22.03
2018-11-21T10:35:09.013Z,22.37
2018-11-21T10:37:41.781Z,24.40
2018-11-21T10:40:10.956Z,24.50
2018-11-21T10:42:41.612Z,24.37
2018-11-21T10:45:13.171Z,23.67
2018-11-21T10:47:47.993Z,23.33
2018-11-21T10:50:23.588Z,22.77
2018-11-21T10:52:56.360Z,21.70
2018-11-21T10:55:25.434Z,22.20
2018-11-21T10:57:59.257Z,21.70
2018-11-21T11:00:50.371Z,21.57
2018-11-21T11:03:28.919Z,18.50
2018-11-21T11:06:19.592Z,20.03
2018-11-21T11:09:06.452Z,23.33
2018-11-21T11:11:54.959Z,22.43
2018-11-21T11:14:54.229Z,20.50
2018-11-21T11:17:40.548Z,19.90
2018-11-21T11:20:42.035Z,18.67
2018-11-21T11:23:22.089Z,18.40
2018-11-21T11:26:24.336Z,18.97
2018-11-21T11:29:08.879Z,17.13
2018-11-21T11:31:57.409Z,19.00
2018-11-21T11:34:50.731Z,18.23
2018-11-21T11:37:49.824Z,16.63
2018-11-21T11:40:36.684Z,17.60
2018-11-21T11:43:19.366Z,17.30
2018-11-21T11:46:21.819Z,17.83
2018-11-21T11:49:08.566Z,16.10
2018-11-21T11:51:56.085Z,18.60
2018-11-21T11:54:44.792Z,17.47
2018-11-21T11:57:33.897Z,19.67
2018-11-21T12:00:25.117Z,18.90
2018-11-21T12:03:24.321Z,19.77
2018-11-21T12:06:18.249Z,20.00
2018-11-21T12:09:08.940Z,20.50
2018-11-21T12:12:08.111Z,21.40
2018-11-21T12:15:04.015Z,20.23
2018-11-21T12:18:03.541Z,19.07
2018-11-21T12:20:57.136Z,19.17
2018-11-21T12:23:52.564Z,20.30
2018-11-21T12:26:48.499Z,19.40
2018-11-21T12:29:34.082Z,18.83
2018-11-21T12:32:20.012Z,19.53
2018-11-21T12:35:07.545Z,21.53
2018-11-21T12:37:57.129Z,21.30
2018-11-21T12:40:44.482Z,21.27
2018-11-21T12:43:40.672Z,19.97
2018-11-21T12:46:37.922Z,22.23
2018-11-21T12:49:25.011Z,21.37
2018-11-21T12:52:24.677Z,21.27
2018-11-21T12:55:17.696Z,22.23
2018-11-21T12:58:07.069Z,21.10
2018-11-21T13:01:10.950Z,22.53
2018-11-21T13:03:56.567Z,22.10
2018-11-21T13:06:43.618Z,22.30
2018-11-21T13:09:33.728Z,22.77
2018-11-21T13:12:20.075Z,20.90
2018-11-21T13:15:02.968Z,21.33
2018-11-21T13:17:52.879Z,22.33
2018-11-21T13:20:38.419Z,21.63
2018-11-21T13:23:24.161Z,22.10
2018-11-21T13:26:15.376Z,22.47
2018-11-21T13:29:01.944Z,23.17
2018-11-21T13:31:47.702Z,24.00
2018-11-21T13:34:33.307Z,24.40
2018-11-21T13:37:16.265Z,24.03
2018-11-21T13:40:04.934Z,24.43
2018-11-21T13:43:04.060Z,22.77
2018-11-21T13:46:03.326Z,24.13
2018-11-21T13:49:02.601Z,25.03
2018-11-21T13:51:48.616Z,24.63
2018-11-21T13:54:44.886Z,25.70
2018-11-21T13:57:12.751Z,25.67
2018-11-21T13:59:41.015Z,30.27
2018-11-21T14:02:09.032Z,28.37
2018-11-21T14:04:37.380Z,26.43
2018-11-21T14:07:05.857Z,27.10
2018-11-21T14:09:34.002Z,26.87
2018-11-21T14:12:01.762Z,27.37
2018-11-21T14:14:29.601Z,28.60
2018-11-21T14:16:58.073Z,29.10
2018-11-21T14:19:27.276Z,30.13
2018-11-21T14:21:55.997Z,30.60
2018-11-21T14:24:22.982Z,36.20
2018-11-21T14:26:50.840Z,29.57
2018-11-21T14:29:18.638Z,29.87
2018-11-21T14:31:46.606Z,31.77
2018-11-21T14:34:16.007Z,30.53
2018-11-21T14:36:43.738Z,32.90
2018-11-21T14:39:12.560Z,30.93
2018-11-21T14:41:41.378Z,29.23
2018-11-21T14:44:11.125Z,29.47
2018-11-21T14:46:44.288Z,29.37
2018-11-21T14:49:11.975Z,29.63
2018-11-21T14:51:39.605Z,28.77
2018-11-21T14:54:08.460Z,28.93
2018-11-21T14:56:36.993Z,28.70
2018-11-21T14:59:05.161Z,29.53
2018-11-21T15:01:32.869Z,29.50
2018-11-21T15:04:00.581Z,30.10
2018-11-21T15:06:28.369Z,31.70
2018-11-21T15:08:56.070Z,29.90
2018-11-21T15:11:23.628Z,30.70
2018-11-21T15:13:51.270Z,30.70
2018-11-21T15:16:18.950Z,31.77
2018-11-21T15:18:46.997Z,32.37
2018-11-21T15:21:16.580Z,33.93
2018-11-21T15:23:43.050Z,32.30
2018-11-21T15:26:10.952Z,32.13
2018-11-21T15:28:38.809Z,32.47
2018-11-21T15:31:06.677Z,33.10
2018-11-21T15:33:34.268Z,34.23
2018-11-21T15:36:01.927Z,33.93
2018-11-21T15:38:29.501Z,35.17
2018-11-21T15:40:57.449Z,33.47
2018-11-21T15:43:27.052Z,33.57
2018-11-21T15:45:55.907Z,35.53
2018-11-21T15:48:24.180Z,32.50
2018-11-21T15:50:52.508Z,33.67
2018-11-21T15:53:20.469Z,32.43
2018-11-21T15:55:50.323Z,34.10
2018-11-21T15:58:18.337Z,33.17
2018-11-21T16:00:46.461Z,35.07
2018-11-21T16:03:14.471Z,35.83
2018-11-21T16:05:44.065Z,35.80
2018-11-21T16:08:12.072Z,36.90
